Time;durP1;ratioP1;P1;durP2;ratioP2;P2;SDS_P1;SDS_P2;PMS_P1;PMS_P2;Temp;Humidity;BMP_temperature;BMP_pressure;BME280_temperature;BME280_humidity;BME280_pressure;Samples;Min_cycle;Max_cycle;Signal;HPM_P1;HPM_P2
2023/08/22 00:00:41;;;;;;;;;;;18.80;76.00;;;;;;5088301;28;20375;-76
2023/08/22 00:03:06;;;;;;;;;;;18.80;75.90;;;;;;5088393;28;19923;-76
2023/08/22 00:05:32;;;;;;;;;;;18.80;75.90;;;;;;5103920;28;19962;-76
2023/08/22 00:07:59;;;;;;;;;;;18.80;75.90;;;;;;5088142;28;19912;-76
2023/08/22 00:10:24;;;;;;;;;;;18.70;75.80;;;;;;5088019;28;19960;-76
2023/08/22 00:12:50;;;;;;;;;;;18.70;76.00;;;;;;5103773;28;19999;-76
2023/08/22 00:15:16;;;;;;;;;;;18.60;76.00;;;;;;5087998;28;19916;-76
2023/08/22 00:17:42;;;;;;;;;;;18.60;76.00;;;;;;5088140;28;20308;-76
2023/08/22 00:20:08;;;;;;;;;;;18.60;76.10;;;;;;5087800;28;19924;-76
2023/08/22 00:22:34;;;;;;;;;;;18.60;76.20;;;;;;5087978;28;19916;-76
2023/08/22 00:24:59;;;;;;;;;;;18.60;76.10;;;;;;5088036;28;19912;-76
2023/08/22 00:27:25;;;;;;;;;;;18.60;76.00;;;;;;5089582;28;19920;-76
2023/08/22 00:29:50;;;;;;;;;;;18.60;76.00;;;;;;5087141;28;20028;-76
2023/08/22 00:32:16;;;;;;;;;;;18.60;76.00;;;;;;5094410;28;19973;-77
2023/08/22 00:34:41;;;;;;;;;;;18.60;76.10;;;;;;5095021;28;19962;-76
2023/08/22 00:37:07;;;;;;;;;;;18.60;76.10;;;;;;5094644;28;19964;-76
2023/08/22 00:39:33;;;;;;;;;;;18.70;76.20;;;;;;5094636;28;20283;-77
2023/08/22 00:41:58;;;;;;;;;;;18.70;76.10;;;;;;5094729;28;20333;-76
2023/08/22 00:44:24;;;;;;;;;;;18.70;76.10;;;;;;5094990;28;20035;-76
2023/08/22 00:46:50;;;;;;;;;;;18.70;76.10;;;;;;5094516;28;19966;-76
2023/08/22 00:49:15;;;;;;;;;;;18.70;76.10;;;;;;5110316;28;20145;-75
2023/08/22 00:51:41;;;;;;;;;;;18.80;76.10;;;;;;5094553;28;19935;-76
2023/08/22 00:54:07;;;;;;;;;;;18.80;76.10;;;;;;5076257;28;19912;-75
2023/08/22 00:56:33;;;;;;;;;;;18.80;76.10;;;;;;5092976;28;19923;-76
2023/08/22 00:58:59;;;;;;;;;;;18.80;76.10;;;;;;5094353;28;19912;-76
2023/08/22 01:01:25;;;;;;;;;;;18.80;76.10;;;;;;5094472;28;19969;-76
2023/08/22 01:03:50;;;;;;;;;;;18.80;76.10;;;;;;5094177;28;20010;-76
2023/08/22 01:06:29;;;;;;;;;;;18.80;76.20;;;;;;5094458;28;19927;-76
2023/08/22 01:08:59;;;;;;;;;;;18.80;76.20;;;;;;5094311;28;19912;-76
2023/08/22 01:11:34;;;;;;;;;;;18.80;76.20;;;;;;5094171;28;19921;-76
2023/08/22 01:14:03;;;;;;;;;;;18.80;76.10;;;;;;5076116;28;20003;-76
2023/08/22 01:16:28;;;;;;;;;;;18.90;76.20;;;;;;5094555;28;19923;-76
2023/08/22 01:18:54;;;;;;;;;;;18.80;76.10;;;;;;5094222;28;19912;-76
2023/08/22 01:21:21;;;;;;;;;;;18.80;76.10;;;;;;5092724;28;19928;-76
2023/08/22 01:23:46;;;;;;;;;;;18.80;76.20;;;;;;5094310;28;20398;-76
2023/08/22 01:26:12;;;;;;;;;;;18.80;76.20;;;;;;5094283;28;19916;-76
2023/08/22 01:28:40;;;;;;;;;;;18.80;76.80;;;;;;5109811;28;20356;-76
2023/08/22 01:31:38;;;;;;;;;;;18.80;76.30;;;;;;5094067;28;19912;-76
2023/08/22 01:34:24;;;;;;;;;;;18.80;76.30;;;;;;5070475;28;19962;-76
2023/08/22 01:36:52;;;;;;;;;;;18.80;76.30;;;;;;5075904;28;19909;-76
2023/08/22 01:39:19;;;;;;;;;;;18.80;76.30;;;;;;5093909;28;20000;-76
2023/08/22 01:41:44;;;;;;;;;;;18.80;76.30;;;;;;5093002;28;20307;-76
2023/08/22 01:44:10;;;;;;;;;;;18.80;76.30;;;;;;5072654;28;19908;-76
2023/08/22 01:46:36;;;;;;;;;;;18.80;76.30;;;;;;5090865;28;19967;-76
2023/08/22 01:49:01;;;;;;;;;;;18.80;76.20;;;;;;5106419;28;19958;-76
2023/08/22 01:51:27;;;;;;;;;;;18.80;76.20;;;;;;5090562;28;19912;-76
2023/08/22 01:53:52;;;;;;;;;;;18.90;76.30;;;;;;5106221;28;20038;-76
2023/08/22 01:56:18;;;;;;;;;;;18.80;76.20;;;;;;5090640;28;19919;-76
2023/08/22 01:58:44;;;;;;;;;;;18.80;76.30;;;;;;5072201;28;19969;-76
2023/08/22 02:01:13;;;;;;;;;;;18.80;76.30;;;;;;5106271;28;19927;-76
2023/08/22 02:03:42;;;;;;;;;;;18.80;76.30;;;;;;5090389;28;20388;-76
2023/08/22 02:06:08;;;;;;;;;;;18.80;76.20;;;;;;5072376;28;20353;-77
2023/08/22 02:08:34;;;;;;;;;;;18.70;76.20;;;;;;5090423;28;19917;-77
2023/08/22 02:10:59;;;;;;;;;;;18.70;76.20;;;;;;5090374;28;19928;-76
2023/08/22 02:13:25;;;;;;;;;;;18.60;76.20;;;;;;5090263;28;20383;-77
2023/08/22 02:15:50;;;;;;;;;;;18.60;76.20;;;;;;5106066;28;19912;-77
2023/08/22 02:18:16;;;;;;;;;;;18.60;76.20;;;;;;5088921;28;19912;-76
2023/08/22 02:20:42;;;;;;;;;;;18.60;76.30;;;;;;5089985;28;19931;-76
2023/08/22 02:23:08;;;;;;;;;;;18.60;76.30;;;;;;5090098;28;20022;-76
2023/08/22 02:25:33;;;;;;;;;;;18.50;76.30;;;;;;5090436;28;20188;-76
2023/08/22 02:27:59;;;;;;;;;;;18.40;76.30;;;;;;5071916;28;19908;-77
2023/08/22 02:30:25;;;;;;;;;;;18.40;76.30;;;;;;5071638;28;19912;-76
2023/08/22 02:32:50;;;;;;;;;;;18.40;76.30;;;;;;5089898;28;19923;-77
2023/08/22 02:35:16;;;;;;;;;;;18.40;76.30;;;;;;5090242;28;19923;-77
2023/08/22 02:37:41;;;;;;;;;;;18.40;76.40;;;;;;5089812;28;19936;-76
2023/08/22 02:40:09;;;;;;;;;;;18.40;76.30;;;;;;5089713;28;20391;-76
2023/08/22 02:42:35;;;;;;;;;;;18.40;76.30;;;;;;5088106;28;20007;-77
2023/08/22 02:45:00;;;;;;;;;;;18.50;76.40;;;;;;5088324;28;19912;-76
2023/08/22 02:47:26;;;;;;;;;;;18.40;76.30;;;;;;5089707;28;19908;-76
2023/08/22 02:49:51;;;;;;;;;;;18.40;76.30;;;;;;5089497;28;20394;-76
2023/08/22 02:52:18;;;;;;;;;;;18.50;76.30;;;;;;5089973;28;19919;-76
2023/08/22 02:54:43;;;;;;;;;;;18.40;76.30;;;;;;5089005;28;19918;-76
2023/08/22 02:57:09;;;;;;;;;;;18.40;76.30;;;;;;5105293;28;19912;-77
2023/08/22 02:59:34;;;;;;;;;;;18.40;76.30;;;;;;5105083;28;19958;-77
2023/08/22 03:02:00;;;;;;;;;;;18.40;76.40;;;;;;5089283;28;20361;-77
2023/08/22 03:04:25;;;;;;;;;;;18.40;76.30;;;;;;5071184;28;20427;-76
2023/08/22 03:06:51;;;;;;;;;;;18.40;76.40;;;;;;5071059;28;20313;-76
2023/08/22 03:09:16;;;;;;;;;;;18.30;76.30;;;;;;5089145;28;20167;-76
2023/08/22 03:11:42;;;;;;;;;;;18.30;76.40;;;;;;5089236;28;19965;-76
2023/08/22 03:14:08;;;;;;;;;;;18.30;76.40;;;;;;5087742;28;19916;-76
2023/08/22 03:16:34;;;;;;;;;;;18.30;76.40;;;;;;5104895;28;19912;-76
2023/08/22 03:18:59;;;;;;;;;;;18.20;76.40;;;;;;5089027;28;20225;-76
2023/08/22 03:21:25;;;;;;;;;;;18.20;76.40;;;;;;5087751;28;19924;-76
2023/08/22 03:23:50;;;;;;;;;;;18.20;76.40;;;;;;5089226;28;20345;-76
2023/08/22 03:26:16;;;;;;;;;;;18.20;76.50;;;;;;5070569;28;19925;-76
2023/08/22 03:28:41;;;;;;;;;;;18.20;76.50;;;;;;5088923;28;20418;-76
2023/08/22 03:31:07;;;;;;;;;;;18.20;76.50;;;;;;5088813;28;19919;-76
2023/08/22 03:33:33;;;;;;;;;;;18.20;76.50;;;;;;5088736;28;19938;-76
2023/08/22 03:35:59;;;;;;;;;;;18.20;76.40;;;;;;5070524;28;20366;-76
2023/08/22 03:38:25;;;;;;;;;;;18.20;76.40;;;;;;5088664;28;20034;-77
2023/08/22 03:40:51;;;;;;;;;;;18.20;76.40;;;;;;5089512;28;19943;-77
2023/08/22 03:43:17;;;;;;;;;;;18.10;76.30;;;;;;5089096;28;20005;-77
2023/08/22 03:45:43;;;;;;;;;;;18.10;76.30;;;;;;5088484;28;19908;-77
2023/08/22 03:48:09;;;;;;;;;;;18.10;76.40;;;;;;5088904;28;19919;-77
2023/08/22 03:50:35;;;;;;;;;;;18.10;76.40;;;;;;5070237;28;20356;-77
2023/08/22 03:53:01;;;;;;;;;;;18.10;76.40;;;;;;5104167;28;19919;-77
2023/08/22 03:55:26;;;;;;;;;;;18.10;76.40;;;;;;5070064;28;20356;-76
2023/08/22 03:57:52;;;;;;;;;;;18.10;76.40;;;;;;5088290;28;20312;-76
2023/08/22 04:00:17;;;;;;;;;;;18.00;76.90;;;;;;5088108;28;19908;-77
2023/08/22 04:02:43;;;;;;;;;;;18.10;76.50;;;;;;5104066;28;19920;-76
2023/08/22 04:05:09;;;;;;;;;;;18.10;76.50;;;;;;5087419;28;19913;-76
2023/08/22 04:07:34;;;;;;;;;;;18.10;76.50;;;;;;5088386;28;20206;-76
2023/08/22 04:10:00;;;;;;;;;;;18.10;76.50;;;;;;5086746;28;20633;-76
2023/08/22 04:12:25;;;;;;;;;;;18.10;76.50;;;;;;5070174;28;20002;-76
2023/08/22 04:14:51;;;;;;;;;;;18.10;76.50;;;;;;5088208;28;19912;-77
2023/08/22 04:17:17;;;;;;;;;;;18.10;76.40;;;;;;5070112;28;19923;-77
2023/08/22 04:19:42;;;;;;;;;;;18.10;76.50;;;;;;5087784;28;20391;-77
2023/08/22 04:22:08;;;;;;;;;;;18.10;76.50;;;;;;5088271;28;19920;-77
2023/08/22 04:24:33;;;;;;;;;;;18.10;76.50;;;;;;5088119;28;19912;-76
2023/08/22 04:26:59;;;;;;;;;;;18.10;76.50;;;;;;5088162;28;19920;-77
2023/08/22 04:29:24;;;;;;;;;;;18.00;77.00;;;;;;5088018;28;19918;-77
2023/08/22 04:31:50;;;;;;;;;;;18.00;76.50;;;;;;5088207;28;19912;-77
2023/08/22 04:34:16;;;;;;;;;;;18.00;76.60;;;;;;5088046;28;19928;-76
2023/08/22 04:36:41;;;;;;;;;;;18.00;76.70;;;;;;5087913;28;20346;-76
2023/08/22 04:39:07;;;;;;;;;;;18.00;76.70;;;;;;5087989;28;20191;-77
2023/08/22 04:41:32;;;;;;;;;;;18.00;76.60;;;;;;5087892;28;20075;-76
2023/08/22 04:43:58;;;;;;;;;;;18.10;76.60;;;;;;5103517;28;19920;-76
2023/08/22 04:46:24;;;;;;;;;;;18.00;76.60;;;;;;5069557;28;19955;-77
2023/08/22 04:48:49;;;;;;;;;;;18.00;76.60;;;;;;5103394;28;19908;-77
2023/08/22 04:51:15;;;;;;;;;;;18.00;76.60;;;;;;5087553;28;20129;-76
2023/08/22 04:53:40;;;;;;;;;;;18.00;76.60;;;;;;5069599;28;19918;-77
2023/08/22 04:56:06;;;;;;;;;;;18.10;76.70;;;;;;5087861;28;19912;-76
2023/08/22 04:58:32;;;;;;;;;;;18.10;76.70;;;;;;5103383;28;19916;-77
2023/08/22 05:00:58;;;;;;;;;;;18.10;76.60;;;;;;5087819;28;19918;-77
2023/08/22 05:03:24;;;;;;;;;;;18.10;76.60;;;;;;5087714;28;20321;-77
2023/08/22 05:05:49;;;;;;;;;;;18.10;76.60;;;;;;5069797;28;20253;-77
2023/08/22 05:08:15;;;;;;;;;;;18.10;76.60;;;;;;5069467;28;20435;-77
2023/08/22 05:10:41;;;;;;;;;;;18.20;76.60;;;;;;5069323;28;19912;-77
2023/08/22 05:13:06;;;;;;;;;;;18.10;76.50;;;;;;5087602;28;19951;-76
2023/08/22 05:15:32;;;;;;;;;;;18.10;76.60;;;;;;5103050;28;19916;-77
2023/08/22 05:17:57;;;;;;;;;;;18.10;76.60;;;;;;5106590;28;19919;-77
2023/08/22 05:20:23;;;;;;;;;;;18.10;76.60;;;;;;5076285;28;20030;-77
2023/08/22 05:22:49;;;;;;;;;;;18.10;76.60;;;;;;5107060;28;20427;-77
2023/08/22 05:25:14;;;;;;;;;;;18.00;76.50;;;;;;5106968;28;19912;-77
2023/08/22 05:27:40;;;;;;;;;;;17.90;76.50;;;;;;5107098;28;19912;-76
2023/08/22 05:30:06;;;;;;;;;;;17.90;76.60;;;;;;5106979;28;20389;-77
2023/08/22 05:32:31;;;;;;;;;;;17.90;76.70;;;;;;5106430;28;19919;-77
2023/08/22 05:34:58;;;;;;;;;;;17.90;76.70;;;;;;5072898;28;20003;-77
2023/08/22 05:37:24;;;;;;;;;;;17.90;76.70;;;;;;5072735;28;19916;-77
2023/08/22 05:39:50;;;;;;;;;;;18.00;76.70;;;;;;5072810;28;19953;-77
2023/08/22 05:42:15;;;;;;;;;;;18.00;76.70;;;;;;5091155;28;19924;-77
2023/08/22 05:44:41;;;;;;;;;;;18.00;76.60;;;;;;5106411;28;19912;-76
2023/08/22 05:47:08;;;;;;;;;;;18.10;76.60;;;;;;5072650;28;19916;-76
2023/08/22 05:49:33;;;;;;;;;;;18.10;77.10;;;;;;5106478;28;19979;-77
2023/08/22 05:52:03;;;;;;;;;;;18.10;76.60;;;;;;5090785;28;19912;-76
2023/08/22 05:54:29;;;;;;;;;;;18.10;76.70;;;;;;5072502;28;19916;-77
2023/08/22 05:56:54;;;;;;;;;;;18.20;76.70;;;;;;5106452;28;20458;-76
2023/08/22 05:59:20;;;;;;;;;;;18.20;76.70;;;;;;5089026;28;19955;-77
2023/08/22 06:01:45;;;;;;;;;;;18.20;76.60;;;;;;5090347;28;20371;-77
2023/08/22 06:04:11;;;;;;;;;;;18.30;76.60;;;;;;5106008;28;20004;-77
2023/08/22 06:06:36;;;;;;;;;;;18.30;76.60;;;;;;5089030;28;19912;-72
2023/08/22 06:09:02;;;;;;;;;;;18.30;76.40;;;;;;5090174;28;19919;-76
2023/08/22 06:11:27;;;;;;;;;;;18.20;76.40;;;;;;5106081;28;19927;-76
2023/08/22 06:13:55;;;;;;;;;;;18.20;76.40;;;;;;5072023;28;19999;-76
2023/08/22 06:16:20;;;;;;;;;;;18.20;76.50;;;;;;5089975;28;19955;-73
2023/08/22 06:18:46;;;;;;;;;;;18.30;76.60;;;;;;5090137;28;20380;-77
2023/08/22 06:21:11;;;;;;;;;;;18.30;76.50;;;;;;5071831;28;19924;-76
2023/08/22 06:23:37;;;;;;;;;;;18.40;76.50;;;;;;5088498;28;19946;-77
2023/08/22 06:26:02;;;;;;;;;;;18.40;76.40;;;;;;5089936;28;19913;-77
2023/08/22 06:28:28;;;;;;;;;;;18.50;76.60;;;;;;5088876;28;19955;-76
2023/08/22 06:30:53;;;;;;;;;;;18.60;76.60;;;;;;5089859;28;20468;-73
2023/08/22 06:33:19;;;;;;;;;;;18.70;76.40;;;;;;5089635;28;19912;-76
2023/08/22 06:35:45;;;;;;;;;;;18.70;76.40;;;;;;5071596;28;19966;-77
2023/08/22 06:38:11;;;;;;;;;;;18.70;76.70;;;;;;5071450;28;19909;-77
2023/08/22 06:40:36;;;;;;;;;;;18.60;76.10;;;;;;5089537;28;19909;-76
2023/08/22 06:43:03;;;;;;;;;;;18.50;76.30;;;;;;5089643;28;19918;-76
2023/08/22 06:45:29;;;;;;;;;;;18.50;76.40;;;;;;5089439;28;19920;-76
2023/08/22 06:47:55;;;;;;;;;;;18.40;76.50;;;;;;5089352;28;19916;-76
2023/08/22 06:50:20;;;;;;;;;;;18.40;76.70;;;;;;5089203;28;19974;-76
2023/08/22 06:52:46;;;;;;;;;;;18.50;76.90;;;;;;5089486;28;19912;-76
2023/08/22 06:55:11;;;;;;;;;;;18.80;76.90;;;;;;5106452;28;20380;-77
2023/08/22 06:57:37;;;;;;;;;;;18.90;76.60;;;;;;5089333;28;19913;-76
2023/08/22 07:00:13;;;;;;;;;;;19.20;76.60;;;;;;5104423;28;19912;-77
2023/08/22 07:02:39;;;;;;;;;;;19.40;76.60;;;;;;5071220;28;19916;-77
2023/08/22 07:05:05;;;;;;;;;;;19.60;76.50;;;;;;5089009;28;19912;-77
2023/08/22 07:07:31;;;;;;;;;;;19.70;76.30;;;;;;5070822;28;19923;-77
2023/08/22 07:09:56;;;;;;;;;;;19.70;76.10;;;;;;5104765;28;19926;-77
2023/08/22 07:12:22;;;;;;;;;;;19.70;76.10;;;;;;5089329;28;19918;-77
2023/08/22 07:14:47;;;;;;;;;;;19.70;76.20;;;;;;5070911;28;19965;-77
2023/08/22 07:17:13;;;;;;;;;;;19.60;76.20;;;;;;5088664;28;19916;-77
2023/08/22 07:19:39;;;;;;;;;;;19.70;76.40;;;;;;5088609;28;19916;-77
2023/08/22 07:22:04;;;;;;;;;;;19.90;76.40;;;;;;5088987;28;19967;-77
2023/08/22 07:24:30;;;;;;;;;;;20.00;76.40;;;;;;5070484;28;19912;-77
2023/08/22 07:26:56;;;;;;;;;;;20.10;76.30;;;;;;5104582;28;20395;-77
2023/08/22 07:29:21;;;;;;;;;;;20.10;76.10;;;;;;5088618;28;19929;-77
2023/08/22 07:31:47;;;;;;;;;;;20.10;76.00;;;;;;5104328;28;19947;-77
2023/08/22 07:34:12;;;;;;;;;;;20.00;76.10;;;;;;5104317;28;20523;-77
2023/08/22 07:36:38;;;;;;;;;;;19.90;76.10;;;;;;5070769;28;19920;-76
2023/08/22 07:39:03;;;;;;;;;;;19.90;76.30;;;;;;5103908;28;19912;-76
2023/08/22 07:41:29;;;;;;;;;;;19.90;76.50;;;;;;5086804;28;20073;-77
2023/08/22 07:43:54;;;;;;;;;;;20.10;76.70;;;;;;5103881;28;19916;-77
2023/08/22 07:46:20;;;;;;;;;;;20.40;76.60;;;;;;5088064;28;19912;-78
2023/08/22 07:48:46;;;;;;;;;;;20.60;76.40;;;;;;5069454;28;20380;-77
2023/08/22 07:51:11;;;;;;;;;;;20.60;76.10;;;;;;5088245;28;20014;-76
2023/08/22 07:53:37;;;;;;;;;;;20.60;76.10;;;;;;5088030;28;19958;-76
2023/08/22 07:56:02;;;;;;;;;;;20.80;76.50;;;;;;5070067;28;19920;-77
2023/08/22 07:58:28;;;;;;;;;;;21.00;76.20;;;;;;5088013;28;20455;-77
2023/08/22 08:00:54;;;;;;;;;;;21.10;76.10;;;;;;5087694;28;19912;-77
2023/08/22 08:03:20;;;;;;;;;;;21.00;76.00;;;;;;5087728;28;20314;-77
2023/08/22 08:05:46;;;;;;;;;;;20.90;76.10;;;;;;5087702;28;19916;-77
2023/08/22 08:08:12;;;;;;;;;;;20.80;76.10;;;;;;5088238;28;19908;-77
2023/08/22 08:10:37;;;;;;;;;;;20.70;76.10;;;;;;5103771;28;20360;-78
2023/08/22 08:13:03;;;;;;;;;;;20.50;76.30;;;;;;5087690;28;19989;-77
2023/08/22 08:15:29;;;;;;;;;;;20.50;76.50;;;;;;5087529;28;19912;-77
2023/08/22 08:17:58;;;;;;;;;;;20.40;76.40;;;;;;5087503;28;19908;-77
2023/08/22 08:20:24;;;;;;;;;;;20.30;76.50;;;;;;5102954;28;19924;-77
2023/08/22 08:22:50;;;;;;;;;;;20.30;76.70;;;;;;5087516;28;19912;-77
2023/08/22 08:25:15;;;;;;;;;;;20.30;76.60;;;;;;5087695;28;20368;-76
2023/08/22 08:27:41;;;;;;;;;;;20.30;76.60;;;;;;5087699;28;20389;-77
2023/08/22 08:30:07;;;;;;;;;;;20.40;76.70;;;;;;5070142;28;19908;-76
2023/08/22 08:32:32;;;;;;;;;;;20.60;77.00;;;;;;5071278;28;20284;-76
2023/08/22 08:34:58;;;;;;;;;;;20.80;77.00;;;;;;5089024;28;20262;-77
2023/08/22 08:37:23;;;;;;;;;;;21.00;76.90;;;;;;5087500;28;19915;-77
2023/08/22 08:39:49;;;;;;;;;;;21.10;76.60;;;;;;5087287;28;20018;-77
2023/08/22 08:42:15;;;;;;;;;;;21.20;76.30;;;;;;5069444;28;19962;-77
2023/08/22 08:44:41;;;;;;;;;;;21.10;76.30;;;;;;5087384;28;19948;-77
2023/08/22 08:47:07;;;;;;;;;;;21.00;76.50;;;;;;5087551;28;19909;-76
2023/08/22 08:49:33;;;;;;;;;;;21.10;76.80;;;;;;5069041;28;20376;-77
2023/08/22 08:52:02;;;;;;;;;;;21.30;76.70;;;;;;5070503;28;19908;-76
2023/08/22 08:54:28;;;;;;;;;;;21.30;76.50;;;;;;5091115;28;20363;-77
2023/08/22 08:56:54;;;;;;;;;;;21.30;76.40;;;;;;5092977;28;19909;-76
2023/08/22 08:59:20;;;;;;;;;;;21.30;76.50;;;;;;5074522;28;19915;-76
2023/08/22 09:01:46;;;;;;;;;;;21.60;77.20;;;;;;5074377;28;19999;-77
2023/08/22 09:04:12;;;;;;;;;;;21.90;77.10;;;;;;5074302;28;20294;-76
2023/08/22 09:06:37;;;;;;;;;;;22.30;77.30;;;;;;5092913;28;19964;-77
2023/08/22 09:09:04;;;;;;;;;;;22.60;76.80;;;;;;5093349;28;19932;-77
2023/08/22 09:11:30;;;;;;;;;;;22.60;76.50;;;;;;5093251;28;19908;-77
2023/08/22 09:13:56;;;;;;;;;;;22.60;76.20;;;;;;5092563;28;19920;-77
2023/08/22 09:16:25;;;;;;;;;;;22.50;76.20;;;;;;5092983;28;20022;-77
2023/08/22 09:18:51;;;;;;;;;;;22.90;77.40;;;;;;5073791;28;19993;-77
2023/08/22 09:21:17;;;;;;;;;;;23.30;76.90;;;;;;5092234;28;19974;-77
2023/08/22 09:23:42;;;;;;;;;;;23.40;76.30;;;;;;5092483;28;19916;-77
2023/08/22 09:26:11;;;;;;;;;;;23.30;76.00;;;;;;5074387;28;20283;-77
2023/08/22 09:28:40;;;;;;;;;;;23.30;76.50;;;;;;5092374;28;19993;-77
2023/08/22 09:31:05;;;;;;;;;;;23.50;76.70;;;;;;5092530;28;19911;-79
2023/08/22 09:33:44;;;;;;;;;;;24.10;77.40;;;;;;5092264;28;19912;-78
2023/08/22 09:36:10;;;;;;;;;;;24.80;77.10;;;;;;5092358;28;19921;-78
2023/08/22 09:38:51;;;;;;;;;;;24.80;75.90;;;;;;5092418;28;19912;-78
2023/08/22 09:41:20;;;;;;;;;;;24.60;75.80;;;;;;5073924;28;19912;-76
2023/08/22 09:43:46;;;;;;;;;;;24.30;75.80;;;;;;5091965;28;19920;-76
2023/08/22 09:46:12;;;;;;;;;;;23.90;75.50;;;;;;5074201;28;19915;-79
2023/08/22 09:48:39;;;;;;;;;;;23.30;75.60;;;;;;5092225;28;19960;-81
2023/08/22 09:51:07;;;;;;;;;;;22.90;76.00;;;;;;5092683;28;19908;-79
2023/08/22 09:53:33;;;;;;;;;;;22.70;77.00;;;;;;5092098;28;19991;-78
2023/08/22 09:56:00;;;;;;;;;;;23.40;78.20;;;;;;5092152;28;19947;-78
2023/08/22 09:58:28;;;;;;;;;;;24.10;78.00;;;;;;5091751;28;19913;-78
2023/08/22 10:00:55;;;;;;;;;;;24.60;77.50;;;;;;5056872;28;19912;-78
2023/08/22 10:03:23;;;;;;;;;;;25.10;77.10;;;;;;5090243;28;20007;-80
2023/08/22 10:05:50;;;;;;;;;;;25.30;76.70;;;;;;5074472;28;20375;-80
2023/08/22 10:08:15;;;;;;;;;;;25.10;76.10;;;;;;5092380;28;20011;-82
2023/08/22 10:10:42;;;;;;;;;;;25.00;76.00;;;;;;5068405;28;19951;-79
2023/08/22 10:13:09;;;;;;;;;;;24.70;75.90;;;;;;5061932;28;19912;-79
2023/08/22 10:15:35;;;;;;;;;;;24.50;76.60;;;;;;5073444;28;20213;-82
2023/08/22 10:18:02;;;;;;;;;;;25.20;77.80;;;;;;5073938;28;19908;-79
2023/08/22 10:20:27;;;;;;;;;;;25.50;76.80;;;;;;5073130;28;20391;-75
2023/08/22 10:22:53;;;;;;;;;;;25.30;76.10;;;;;;5091071;28;19916;-72
2023/08/22 10:25:18;;;;;;;;;;;25.00;76.00;;;;;;5090652;28;20008;-77
2023/08/22 10:27:48;;;;;;;;;;;24.60;75.90;;;;;;5072116;28;20622;-76
2023/08/22 10:30:13;;;;;;;;;;;24.30;76.00;;;;;;5090591;28;20010;-78
2023/08/22 10:32:39;;;;;;;;;;;23.90;75.90;;;;;;5090522;28;19940;-77
2023/08/22 10:35:19;;;;;;;;;;;23.50;76.00;;;;;;5090662;28;19927;-77
2023/08/22 10:37:49;;;;;;;;;;;23.20;76.30;;;;;;5073924;28;20385;-77
2023/08/22 10:40:23;;;;;;;;;;;23.00;76.60;;;;;;5053666;28;19924;-79
2023/08/22 10:43:03;;;;;;;;;;;23.00;77.00;;;;;;5053335;28;19916;-79
2023/08/22 10:45:49;;;;;;;;;;;23.10;77.20;;;;;;5071127;28;19915;-79
2023/08/22 10:48:16;;;;;;;;;;;23.50;77.30;;;;;;5070600;28;20364;-81
2023/08/22 10:50:42;;;;;;;;;;;24.20;77.80;;;;;;5052711;28;19908;-78
2023/08/22 10:53:11;;;;;;;;;;;24.90;77.70;;;;;;5083649;28;19965;-79
2023/08/22 10:55:37;;;;;;;;;;;25.60;77.60;;;;;;5091659;28;19979;-78
2023/08/22 10:58:03;;;;;;;;;;;26.00;76.90;;;;;;5091436;28;19908;-80
2023/08/22 11:00:31;;;;;;;;;;;26.10;76.40;;;;;;5055922;28;19913;-76
2023/08/22 11:02:57;;;;;;;;;;;26.10;76.30;;;;;;5090850;28;19923;-79
2023/08/22 11:05:23;;;;;;;;;;;26.10;76.20;;;;;;5091061;28;19987;-76
2023/08/22 11:07:49;;;;;;;;;;;25.90;75.80;;;;;;5090376;28;19947;-78
2023/08/22 11:10:16;;;;;;;;;;;25.70;76.10;;;;;;5072368;28;19912;-79
2023/08/22 11:12:43;;;;;;;;;;;25.60;76.30;;;;;;5072296;28;19912;-79
2023/08/22 11:15:10;;;;;;;;;;;25.60;76.50;;;;;;5071725;28;19962;-80
2023/08/22 11:17:40;;;;;;;;;;;25.50;76.50;;;;;;5090357;28;19970;-74
2023/08/22 11:20:12;;;;;;;;;;;25.50;77.00;;;;;;5089489;28;20360;-77
2023/08/22 11:22:42;;;;;;;;;;;25.50;76.70;;;;;;5089916;28;19940;-76
2023/08/22 11:25:13;;;;;;;;;;;25.60;76.70;;;;;;5089194;28;20208;-79
2023/08/22 11:27:41;;;;;;;;;;;25.80;76.60;;;;;;5089396;28;19930;-78
2023/08/22 11:30:08;;;;;;;;;;;25.70;76.20;;;;;;5089147;28;19912;-82
2023/08/22 11:32:35;;;;;;;;;;;25.70;76.60;;;;;;5070775;28;19922;-77
2023/08/22 11:35:03;;;;;;;;;;;25.90;77.10;;;;;;5089298;28;20510;-75
2023/08/22 11:37:36;;;;;;;;;;;26.50;77.50;;;;;;5070790;28;19927;-76
2023/08/22 11:40:08;;;;;;;;;;;26.70;76.90;;;;;;5088945;28;19912;-78
2023/08/22 11:42:34;;;;;;;;;;;26.60;76.40;;;;;;5089233;28;19912;-77
2023/08/22 11:45:03;;;;;;;;;;;26.40;76.20;;;;;;5071130;28;20058;-77
2023/08/22 11:47:38;;;;;;;;;;;26.00;76.00;;;;;;5089608;28;19942;-79
2023/08/22 11:50:10;;;;;;;;;;;25.60;76.20;;;;;;5089913;28;19976;-79
2023/08/22 11:52:39;;;;;;;;;;;25.50;76.80;;;;;;5084907;28;19916;-78
2023/08/22 11:55:06;;;;;;;;;;;25.60;77.30;;;;;;5089991;28;19930;-78
2023/08/22 11:57:33;;;;;;;;;;;26.00;77.80;;;;;;5071511;28;19913;-78
2023/08/22 12:00:01;;;;;;;;;;;26.90;78.50;;;;;;5088673;28;19908;-77
2023/08/22 12:02:26;;;;;;;;;;;28.00;79.10;;;;;;5069675;28;20229;-77
2023/08/22 12:04:55;;;;;;;;;;;29.00;78.30;;;;;;5087943;28;19912;-77
2023/08/22 12:07:23;;;;;;;;;;;29.50;78.10;;;;;;5088362;28;20012;-78
2023/08/22 12:09:59;;;;;;;;;;;29.80;77.80;;;;;;5088568;28;20271;-78
2023/08/22 12:12:25;;;;;;;;;;;29.70;77.10;;;;;;5088531;28;19911;-78
2023/08/22 12:14:51;;;;;;;;;;;29.20;76.80;;;;;;5088325;28;20268;-76
2023/08/22 12:17:16;;;;;;;;;;;28.90;77.10;;;;;;5088700;28;20343;-76
2023/08/22 12:19:42;;;;;;;;;;;28.60;77.30;;;;;;5088194;28;19958;-75
2023/08/22 12:22:08;;;;;;;;;;;28.50;77.70;;;;;;5088877;28;19963;-75
2023/08/22 12:24:34;;;;;;;;;;;28.50;77.70;;;;;;5071565;28;19965;-75
2023/08/22 12:26:59;;;;;;;;;;;28.40;77.40;;;;;;5070696;28;19912;-76
2023/08/22 12:29:25;;;;;;;;;;;28.20;77.10;;;;;;5088986;28;19920;-75
2023/08/22 12:31:50;;;;;;;;;;;27.90;76.70;;;;;;5070054;28;19912;-74
2023/08/22 12:34:16;;;;;;;;;;;27.80;77.70;;;;;;5088362;28;20027;-74
2023/08/22 12:36:41;;;;;;;;;;;28.00;77.70;;;;;;5088273;28;19973;-74
2023/08/22 12:39:11;;;;;;;;;;;27.90;77.50;;;;;;5088268;28;19948;-75
2023/08/22 12:41:38;;;;;;;;;;;27.90;77.70;;;;;;5071029;28;19938;-77
2023/08/22 12:44:04;;;;;;;;;;;28.10;78.00;;;;;;5088085;28;19916;-75
2023/08/22 12:46:29;;;;;;;;;;;28.10;77.70;;;;;;5088436;28;20035;-77
2023/08/22 12:48:55;;;;;;;;;;;28.00;77.70;;;;;;5088298;28;19951;-76
2023/08/22 12:51:22;;;;;;;;;;;28.00;77.60;;;;;;5088676;28;19951;-76
2023/08/22 12:53:47;;;;;;;;;;;27.60;76.60;;;;;;5070262;28;19912;-76
2023/08/22 12:56:13;;;;;;;;;;;27.10;76.60;;;;;;5088092;28;19917;-75
2023/08/22 12:58:39;;;;;;;;;;;26.80;77.40;;;;;;5069740;28;19919;-75
2023/08/22 13:01:04;;;;;;;;;;;26.90;78.00;;;;;;5088194;28;19917;-75
2023/08/22 13:03:30;;;;;;;;;;;27.20;78.10;;;;;;5087547;28;19916;-74
2023/08/22 13:05:56;;;;;;;;;;;27.70;78.90;;;;;;5087900;28;20003;-75
2023/08/22 13:08:21;;;;;;;;;;;28.50;79.20;;;;;;5087711;28;19918;-76
2023/08/22 13:10:47;;;;;;;;;;;28.90;78.40;;;;;;5086553;28;20000;-75
2023/08/22 13:13:12;;;;;;;;;;;29.10;78.20;;;;;;5069463;28;19916;-75
2023/08/22 13:15:38;;;;;;;;;;;29.30;78.10;;;;;;5052868;28;20422;-75
2023/08/22 13:18:04;;;;;;;;;;;29.10;77.70;;;;;;5087643;28;19935;-75
2023/08/22 13:20:32;;;;;;;;;;;29.10;78.10;;;;;;5087125;28;20017;-75
2023/08/22 13:22:58;;;;;;;;;;;29.30;78.30;;;;;;5087943;28;20015;-75
2023/08/22 13:25:23;;;;;;;;;;;29.40;78.10;;;;;;5087283;28;20003;-76
2023/08/22 13:27:49;;;;;;;;;;;29.30;78.00;;;;;;5069927;28;19916;-75
2023/08/22 13:30:15;;;;;;;;;;;29.00;77.60;;;;;;5054615;28;20074;-75
2023/08/22 13:32:41;;;;;;;;;;;28.60;77.50;;;;;;5069747;28;19920;-75
2023/08/22 13:35:08;;;;;;;;;;;28.10;76.80;;;;;;5069406;28;19919;-74
2023/08/22 13:37:34;;;;;;;;;;;27.50;76.80;;;;;;5053612;28;19965;-74
2023/08/22 13:40:02;;;;;;;;;;;27.00;77.00;;;;;;5072580;28;20267;-74
2023/08/22 13:42:28;;;;;;;;;;;26.70;77.20;;;;;;5062049;28;19920;-75
2023/08/22 13:44:53;;;;;;;;;;;26.40;77.10;;;;;;5085990;28;19981;-74
2023/08/22 13:47:19;;;;;;;;;;;26.00;77.00;;;;;;5055335;28;19926;-75
2023/08/22 13:49:44;;;;;;;;;;;25.70;77.00;;;;;;5071965;28;20338;-74
2023/08/22 13:52:10;;;;;;;;;;;25.60;77.20;;;;;;5072290;28;19912;-76
2023/08/22 13:54:35;;;;;;;;;;;25.40;77.20;;;;;;5091157;28;20050;-77
2023/08/22 13:57:01;;;;;;;;;;;25.50;77.50;;;;;;5073128;28;20368;-73
2023/08/22 13:59:27;;;;;;;;;;;25.70;77.70;;;;;;5090973;28;19916;-73
2023/08/22 14:01:52;;;;;;;;;;;26.00;77.40;;;;;;5073664;28;20001;-74
2023/08/22 14:04:19;;;;;;;;;;;26.10;76.90;;;;;;5073111;28;19916;-74
2023/08/22 14:06:45;;;;;;;;;;;26.00;76.40;;;;;;5072577;28;20455;-74
2023/08/22 14:09:11;;;;;;;;;;;25.80;76.40;;;;;;5072482;28;19982;-74
2023/08/22 14:11:36;;;;;;;;;;;25.70;76.40;;;;;;5090774;28;19913;-74